sensor_id;sensor_type;location;lat;lon;timestamp;temperature;humidity
59923;DHT22;45778;51.142;3.732;2023-04-01T00:01:32;9.60;99.90
59923;DHT22;45778;51.142;3.732;2023-04-01T00:03:58;9.60;99.90
59923;DHT22;45778;51.142;3.732;2023-04-01T00:06:24;9.60;99.90
59923;DHT22;45778;51.142;3.732;2023-04-01T00:08:50;9.60;99.90
59923;DHT22;45778;51.142;3.732;2023-04-01T00:11:16;9.60;99.90
59923;DHT22;45778;51.142;3.732;2023-04-01T00:13:42;9.60;99.90
59923;DHT22;45778;51.142;3.732;2023-04-01T00:16:09;9.60;99.90
59923;DHT22;45778;51.142;3.732;2023-04-01T00:18:35;9.50;99.90
59923;DHT22;45778;51.142;3.732;2023-04-01T00:21:00;9.50;99.90
59923;DHT22;45778;51.142;3.732;2023-04-01T00:23:26;9.60;99.90
59923;DHT22;45778;51.142;3.732;2023-04-01T00:25:52;9.60;99.90
59923;DHT22;45778;51.142;3.732;2023-04-01T00:28:19;9.60;99.90
59923;DHT22;45778;51.142;3.732;2023-04-01T00:30:45;9.60;99.90
59923;DHT22;45778;51.142;3.732;2023-04-01T00:33:11;9.60;99.90
59923;DHT22;45778;51.142;3.732;2023-04-01T00:35:37;9.50;99.90
59923;DHT22;45778;51.142;3.732;2023-04-01T00:38:04;9.50;99.90
59923;DHT22;45778;51.142;3.732;2023-04-01T00:40:31;9.50;99.90
59923;DHT22;45778;51.142;3.732;2023-04-01T00:42:57;9.40;99.90
59923;DHT22;45778;51.142;3.732;2023-04-01T00:45:35;9.40;99.90
59923;DHT22;45778;51.142;3.732;2023-04-01T00:48:17;9.40;99.90
59923;DHT22;45778;51.142;3.732;2023-04-01T00:50:54;9.50;99.90
59923;DHT22;45778;51.142;3.732;2023-04-01T00:53:22;9.40;99.90
59923;DHT22;45778;51.142;3.732;2023-04-01T00:56:05;9.40;99.90
59923;DHT22;45778;51.142;3.732;2023-04-01T00:58:33;9.40;99.90
59923;DHT22;45778;51.142;3.732;2023-04-01T01:01:01;9.40;99.90
59923;DHT22;45778;51.142;3.732;2023-04-01T01:03:27;9.30;99.90
59923;DHT22;45778;51.142;3.732;2023-04-01T01:12:04;9.20;99.90
59923;DHT22;45778;51.142;3.732;2023-04-01T01:25:33;9.10;99.90
59923;DHT22;45778;51.142;3.732;2023-04-01T01:31:02;9.10;99.90
59923;DHT22;45778;51.142;3.732;2023-04-01T01:36:23;9.10;99.90
59923;DHT22;45778;51.142;3.732;2023-04-01T01:38:52;9.10;99.90
59923;DHT22;45778;51.142;3.732;2023-04-01T01:41:19;9.10;99.90
59923;DHT22;45778;51.142;3.732;2023-04-01T01:43:48;9.10;99.90
59923;DHT22;45778;51.142;3.732;2023-04-01T01:46:19;9.10;99.90
59923;DHT22;45778;51.142;3.732;2023-04-01T01:48:47;9.10;99.90
59923;DHT22;45778;51.142;3.732;2023-04-01T01:51:13;9.10;99.90
59923;DHT22;45778;51.142;3.732;2023-04-01T01:53:38;9.10;99.90
59923;DHT22;45778;51.142;3.732;2023-04-01T01:56:05;9.10;99.90
59923;DHT22;45778;51.142;3.732;2023-04-01T01:58:36;9.10;99.90
59923;DHT22;45778;51.142;3.732;2023-04-01T02:01:09;9.10;99.90
59923;DHT22;45778;51.142;3.732;2023-04-01T02:03:39;9.10;99.90
59923;DHT22;45778;51.142;3.732;2023-04-01T02:06:08;9.10;99.90
59923;DHT22;45778;51.142;3.732;2023-04-01T02:08:51;9.10;99.90
59923;DHT22;45778;51.142;3.732;2023-04-01T02:11:31;9.10;99.90
59923;DHT22;45778;51.142;3.732;2023-04-01T02:14:10;9.10;99.90
59923;DHT22;45778;51.142;3.732;2023-04-01T02:16:45;9.10;99.90
59923;DHT22;45778;51.142;3.732;2023-04-01T02:19:13;9.10;99.90
59923;DHT22;45778;51.142;3.732;2023-04-01T02:21:41;9.20;99.90
59923;DHT22;45778;51.142;3.732;2023-04-01T02:24:12;9.20;99.90
59923;DHT22;45778;51.142;3.732;2023-04-01T02:26:39;9.20;99.90
59923;DHT22;45778;51.142;3.732;2023-04-01T02:29:06;9.20;99.90
59923;DHT22;45778;51.142;3.732;2023-04-01T02:31:33;9.20;99.90
59923;DHT22;45778;51.142;3.732;2023-04-01T02:34:00;9.20;99.90
59923;DHT22;45778;51.142;3.732;2023-04-01T02:36:26;9.20;99.90
59923;DHT22;45778;51.142;3.732;2023-04-01T02:38:52;9.20;99.90
59923;DHT22;45778;51.142;3.732;2023-04-01T02:41:20;9.20;99.90
59923;DHT22;45778;51.142;3.732;2023-04-01T02:43:46;9.20;99.90
59923;DHT22;45778;51.142;3.732;2023-04-01T02:46:12;9.20;99.90
59923;DHT22;45778;51.142;3.732;2023-04-01T02:48:37;9.20;99.90
59923;DHT22;45778;51.142;3.732;2023-04-01T02:51:03;9.30;99.90
59923;DHT22;45778;51.142;3.732;2023-04-01T02:53:29;9.20;99.90
59923;DHT22;45778;51.142;3.732;2023-04-01T02:55:55;9.20;99.90
59923;DHT22;45778;51.142;3.732;2023-04-01T02:58:21;9.20;99.90
59923;DHT22;45778;51.142;3.732;2023-04-01T03:00:47;9.20;99.90
59923;DHT22;45778;51.142;3.732;2023-04-01T03:03:13;9.20;99.90
59923;DHT22;45778;51.142;3.732;2023-04-01T03:05:39;9.20;99.90
59923;DHT22;45778;51.142;3.732;2023-04-01T03:08:05;9.30;99.90
59923;DHT22;45778;51.142;3.732;2023-04-01T03:10:31;9.30;99.90
59923;DHT22;45778;51.142;3.732;2023-04-01T03:12:58;9.20;99.90
59923;DHT22;45778;51.142;3.732;2023-04-01T03:15:24;9.20;99.90
59923;DHT22;45778;51.142;3.732;2023-04-01T03:17:50;9.20;99.90
59923;DHT22;45778;51.142;3.732;2023-04-01T03:20:16;9.20;99.90
59923;DHT22;45778;51.142;3.732;2023-04-01T03:22:42;9.20;99.90
59923;DHT22;45778;51.142;3.732;2023-04-01T03:25:08;9.20;99.90
59923;DHT22;45778;51.142;3.732;2023-04-01T03:27:35;9.30;99.90
59923;DHT22;45778;51.142;3.732;2023-04-01T03:30:05;9.20;99.90
59923;DHT22;45778;51.142;3.732;2023-04-01T03:32:31;9.20;99.90
59923;DHT22;45778;51.142;3.732;2023-04-01T03:34:57;9.20;99.90
59923;DHT22;45778;51.142;3.732;2023-04-01T03:37:23;9.20;99.90
59923;DHT22;45778;51.142;3.732;2023-04-01T03:39:49;9.20;99.90
59923;DHT22;45778;51.142;3.732;2023-04-01T03:42:15;9.20;99.90
59923;DHT22;45778;51.142;3.732;2023-04-01T03:44:40;9.10;99.90
59923;DHT22;45778;51.142;3.732;2023-04-01T03:47:06;9.20;99.90
59923;DHT22;45778;51.142;3.732;2023-04-01T03:49:33;9.10;99.90
59923;DHT22;45778;51.142;3.732;2023-04-01T03:51:58;9.10;99.90
59923;DHT22;45778;51.142;3.732;2023-04-01T03:54:24;9.10;99.90
59923;DHT22;45778;51.142;3.732;2023-04-01T03:56:50;9.10;99.90
59923;DHT22;45778;51.142;3.732;2023-04-01T03:59:15;9.10;99.90
59923;DHT22;45778;51.142;3.732;2023-04-01T04:01:41;9.10;99.90
59923;DHT22;45778;51.142;3.732;2023-04-01T04:04:07;9.10;99.90
59923;DHT22;45778;51.142;3.732;2023-04-01T04:06:33;9.10;99.90
59923;DHT22;45778;51.142;3.732;2023-04-01T04:08:59;9.10;99.90
59923;DHT22;45778;51.142;3.732;2023-04-01T04:11:25;9.10;99.90
59923;DHT22;45778;51.142;3.732;2023-04-01T04:13:51;9.10;99.90
59923;DHT22;45778;51.142;3.732;2023-04-01T04:16:18;9.10;99.90
59923;DHT22;45778;51.142;3.732;2023-04-01T04:18:44;9.10;99.90
59923;DHT22;45778;51.142;3.732;2023-04-01T04:21:14;9.10;99.90
59923;DHT22;45778;51.142;3.732;2023-04-01T04:23:41;9.10;99.90
59923;DHT22;45778;51.142;3.732;2023-04-01T04:26:09;9.10;99.90
59923;DHT22;45778;51.142;3.732;2023-04-01T04:28:35;9.10;99.90
59923;DHT22;45778;51.142;3.732;2023-04-01T04:31:01;9.10;99.90
59923;DHT22;45778;51.142;3.732;2023-04-01T04:33:27;9.00;99.90
59923;DHT22;45778;51.142;3.732;2023-04-01T04:35:56;9.00;99.90
59923;DHT22;45778;51.142;3.732;2023-04-01T04:38:22;9.00;99.90
59923;DHT22;45778;51.142;3.732;2023-04-01T04:40:47;9.10;99.90
59923;DHT22;45778;51.142;3.732;2023-04-01T04:43:15;9.00;99.90
59923;DHT22;45778;51.142;3.732;2023-04-01T04:45:42;9.00;99.90
59923;DHT22;45778;51.142;3.732;2023-04-01T04:48:08;9.00;99.90
59923;DHT22;45778;51.142;3.732;2023-04-01T04:50:35;9.00;99.90
59923;DHT22;45778;51.142;3.732;2023-04-01T04:53:02;9.10;99.90
59923;DHT22;45778;51.142;3.732;2023-04-01T04:55:27;9.00;99.90
59923;DHT22;45778;51.142;3.732;2023-04-01T04:57:53;9.00;99.90
59923;DHT22;45778;51.142;3.732;2023-04-01T05:00:19;9.00;99.90
59923;DHT22;45778;51.142;3.732;2023-04-01T05:02:44;9.00;99.90
59923;DHT22;45778;51.142;3.732;2023-04-01T05:05:10;9.00;99.90
59923;DHT22;45778;51.142;3.732;2023-04-01T05:07:36;9.00;99.90
59923;DHT22;45778;51.142;3.732;2023-04-01T05:10:02;8.90;99.90
59923;DHT22;45778;51.142;3.732;2023-04-01T05:12:28;9.00;99.90
59923;DHT22;45778;51.142;3.732;2023-04-01T05:14:54;9.00;99.90
59923;DHT22;45778;51.142;3.732;2023-04-01T05:17:20;8.90;99.90
59923;DHT22;45778;51.142;3.732;2023-04-01T05:19:45;8.90;99.90
59923;DHT22;45778;51.142;3.732;2023-04-01T05:22:11;8.90;99.90
59923;DHT22;45778;51.142;3.732;2023-04-01T05:24:37;9.00;99.90
59923;DHT22;45778;51.142;3.732;2023-04-01T05:27:02;8.90;99.90
59923;DHT22;45778;51.142;3.732;2023-04-01T05:29:28;8.80;99.90
59923;DHT22;45778;51.142;3.732;2023-04-01T05:31:54;8.80;99.90
59923;DHT22;45778;51.142;3.732;2023-04-01T05:34:19;8.90;99.90
59923;DHT22;45778;51.142;3.732;2023-04-01T05:36:45;8.90;99.90
59923;DHT22;45778;51.142;3.732;2023-04-01T05:39:11;8.90;99.90
59923;DHT22;45778;51.142;3.732;2023-04-01T05:41:37;8.90;99.90
59923;DHT22;45778;51.142;3.732;2023-04-01T05:44:04;8.90;99.90
59923;DHT22;45778;51.142;3.732;2023-04-01T05:46:30;8.90;99.90
59923;DHT22;45778;51.142;3.732;2023-04-01T05:48:56;8.90;99.90
59923;DHT22;45778;51.142;3.732;2023-04-01T05:51:22;8.80;99.90
59923;DHT22;45778;51.142;3.732;2023-04-01T05:53:49;8.80;99.90
59923;DHT22;45778;51.142;3.732;2023-04-01T05:56:15;8.80;99.90
59923;DHT22;45778;51.142;3.732;2023-04-01T05:58:40;8.80;99.90
59923;DHT22;45778;51.142;3.732;2023-04-01T06:01:12;8.80;99.90
59923;DHT22;45778;51.142;3.732;2023-04-01T06:03:38;8.80;99.90
59923;DHT22;45778;51.142;3.732;2023-04-01T06:06:03;8.80;99.90
59923;DHT22;45778;51.142;3.732;2023-04-01T06:08:30;8.80;99.90
59923;DHT22;45778;51.142;3.732;2023-04-01T06:14:03;8.80;99.90
59923;DHT22;45778;51.142;3.732;2023-04-01T06:32:38;8.90;99.90
59923;DHT22;45778;51.142;3.732;2023-04-01T06:35:14;8.90;99.90
59923;DHT22;45778;51.142;3.732;2023-04-01T06:38:05;8.90;99.90
59923;DHT22;45778;51.142;3.732;2023-04-01T06:41:04;8.90;99.90
59923;DHT22;45778;51.142;3.732;2023-04-01T06:43:58;8.80;99.90
59923;DHT22;45778;51.142;3.732;2023-04-01T06:46:45;8.80;99.90
59923;DHT22;45778;51.142;3.732;2023-04-01T06:49:52;8.80;99.90
59923;DHT22;45778;51.142;3.732;2023-04-01T06:57:41;8.90;99.90
59923;DHT22;45778;51.142;3.732;2023-04-01T07:00:19;8.80;99.90
59923;DHT22;45778;51.142;3.732;2023-04-01T07:02:56;8.90;99.90
59923;DHT22;45778;51.142;3.732;2023-04-01T07:05:31;8.90;99.90
59923;DHT22;45778;51.142;3.732;2023-04-01T07:08:01;8.90;99.90
59923;DHT22;45778;51.142;3.732;2023-04-01T07:10:44;9.00;99.90
59923;DHT22;45778;51.142;3.732;2023-04-01T07:13:21;9.00;99.90
59923;DHT22;45778;51.142;3.732;2023-04-01T07:19:03;9.10;99.90
59923;DHT22;45778;51.142;3.732;2023-04-01T07:21:48;9.10;99.90
59923;DHT22;45778;51.142;3.732;2023-04-01T07:24:37;9.10;99.90
59923;DHT22;45778;51.142;3.732;2023-04-01T07:27:09;9.10;99.90
59923;DHT22;45778;51.142;3.732;2023-04-01T07:29:35;9.10;99.90
59923;DHT22;45778;51.142;3.732;2023-04-01T07:40:37;9.00;99.90
59923;DHT22;45778;51.142;3.732;2023-04-01T07:51:15;9.10;99.90
59923;DHT22;45778;51.142;3.732;2023-04-01T07:56:42;9.10;99.90
59923;DHT22;45778;51.142;3.732;2023-04-01T08:07:24;9.10;99.90
59923;DHT22;45778;51.142;3.732;2023-04-01T08:10:18;9.20;99.90
59923;DHT22;45778;51.142;3.732;2023-04-01T08:13:07;9.10;99.90
59923;DHT22;45778;51.142;3.732;2023-04-01T08:15:54;9.20;99.90
59923;DHT22;45778;51.142;3.732;2023-04-01T08:21:02;9.30;99.90
59923;DHT22;45778;51.142;3.732;2023-04-01T08:23:47;9.30;99.90
59923;DHT22;45778;51.142;3.732;2023-04-01T08:29:19;9.30;99.90
59923;DHT22;45778;51.142;3.732;2023-04-01T08:32:12;9.30;99.90
59923;DHT22;45778;51.142;3.732;2023-04-01T08:34:45;9.30;99.90
59923;DHT22;45778;51.142;3.732;2023-04-01T08:37:17;9.30;99.90
59923;DHT22;45778;51.142;3.732;2023-04-01T08:39:50;9.50;99.90
59923;DHT22;45778;51.142;3.732;2023-04-01T08:50:31;9.60;99.90
59923;DHT22;45778;51.142;3.732;2023-04-01T08:56:23;9.60;99.90
59923;DHT22;45778;51.142;3.732;2023-04-01T09:26:59;9.40;99.90
59923;DHT22;45778;51.142;3.732;2023-04-01T09:29:54;9.40;99.90
59923;DHT22;45778;51.142;3.732;2023-04-01T09:38:17;9.20;99.90
59923;DHT22;45778;51.142;3.732;2023-04-01T09:40:54;9.20;99.90
59923;DHT22;45778;51.142;3.732;2023-04-01T09:44:06;9.20;99.90
59923;DHT22;45778;51.142;3.732;2023-04-01T09:46:23;9.30;99.90
59923;DHT22;45778;51.142;3.732;2023-04-01T10:02:50;9.30;99.90
59923;DHT22;45778;51.142;3.732;2023-04-01T10:08:19;9.50;99.90
59923;DHT22;45778;51.142;3.732;2023-04-01T10:14:10;9.50;99.90
59923;DHT22;45778;51.142;3.732;2023-04-01T10:24:53;9.50;99.90
59923;DHT22;45778;51.142;3.732;2023-04-01T10:30:29;9.50;99.90
59923;DHT22;45778;51.142;3.732;2023-04-01T11:32:20;9.60;99.90
59923;DHT22;45778;51.142;3.732;2023-04-01T11:37:27;9.70;99.90
59923;DHT22;45778;51.142;3.732;2023-04-01T11:43:06;9.70;99.90
59923;DHT22;45778;51.142;3.732;2023-04-01T11:45:42;9.60;99.90
59923;DHT22;45778;51.142;3.732;2023-04-01T11:48:58;9.70;99.90
59923;DHT22;45778;51.142;3.732;2023-04-01T11:51:40;9.70;99.90
59923;DHT22;45778;51.142;3.732;2023-04-01T12:11:28;10.00;99.90
59923;DHT22;45778;51.142;3.732;2023-04-01T12:14:08;10.00;99.90
59923;DHT22;45778;51.142;3.732;2023-04-01T12:16:46;9.90;99.90
59923;DHT22;45778;51.142;3.732;2023-04-01T12:19:17;9.90;99.90
59923;DHT22;45778;51.142;3.732;2023-04-01T12:36:05;9.80;99.90
59923;DHT22;45778;51.142;3.732;2023-04-01T12:41:54;9.90;99.90
59923;DHT22;45778;51.142;3.732;2023-04-01T12:55:41;10.10;99.90
59923;DHT22;45778;51.142;3.732;2023-04-01T13:25:25;9.80;99.90
59923;DHT22;45778;51.142;3.732;2023-04-01T13:28:27;9.90;99.90
59923;DHT22;45778;51.142;3.732;2023-04-01T13:44:20;9.90;99.90
59923;DHT22;45778;51.142;3.732;2023-04-01T13:55:14;9.80;99.90
59923;DHT22;45778;51.142;3.732;2023-04-01T14:00:50;9.90;99.90
59923;DHT22;45778;51.142;3.732;2023-04-01T14:03:42;9.80;99.90
59923;DHT22;45778;51.142;3.732;2023-04-01T14:06:34;9.80;99.90
59923;DHT22;45778;51.142;3.732;2023-04-01T14:17:37;9.60;99.90
59923;DHT22;45778;51.142;3.732;2023-04-01T14:34:49;9.70;99.90
59923;DHT22;45778;51.142;3.732;2023-04-01T14:38:42;9.70;99.90
59923;DHT22;45778;51.142;3.732;2023-04-01T14:41:04;9.50;99.90
59923;DHT22;45778;51.142;3.732;2023-04-01T14:49:35;9.50;99.90
59923;DHT22;45778;51.142;3.732;2023-04-01T14:54:44;9.50;99.90
59923;DHT22;45778;51.142;3.732;2023-04-01T14:57:31;9.50;99.90
59923;DHT22;45778;51.142;3.732;2023-04-01T15:00:05;9.50;99.90
59923;DHT22;45778;51.142;3.732;2023-04-01T15:02:57;9.40;99.90
59923;DHT22;45778;51.142;3.732;2023-04-01T15:08:36;9.50;99.90
59923;DHT22;45778;51.142;3.732;2023-04-01T15:35:56;9.40;99.90
59923;DHT22;45778;51.142;3.732;2023-04-01T15:41:14;9.50;99.90
59923;DHT22;45778;51.142;3.732;2023-04-01T15:43:42;9.40;99.90
59923;DHT22;45778;51.142;3.732;2023-04-01T15:46:20;9.30;99.90
59923;DHT22;45778;51.142;3.732;2023-04-01T15:49:03;9.40;99.90
59923;DHT22;45778;51.142;3.732;2023-04-01T15:51:56;9.30;99.90
59923;DHT22;45778;51.142;3.732;2023-04-01T15:54:52;9.40;99.90
59923;DHT22;45778;51.142;3.732;2023-04-01T16:03:30;9.40;99.90
59923;DHT22;45778;51.142;3.732;2023-04-01T16:09:09;9.30;99.90
59923;DHT22;45778;51.142;3.732;2023-04-01T16:20:24;9.20;99.90
59923;DHT22;45778;51.142;3.732;2023-04-01T16:26:37;9.40;99.90
59923;DHT22;45778;51.142;3.732;2023-04-01T16:32:04;9.40;99.90
59923;DHT22;45778;51.142;3.732;2023-04-01T16:37:10;9.30;99.90
59923;DHT22;45778;51.142;3.732;2023-04-01T16:40:09;9.20;99.90
59923;DHT22;45778;51.142;3.732;2023-04-01T16:42:32;9.20;99.90
59923;DHT22;45778;51.142;3.732;2023-04-01T16:50:21;9.00;99.90
59923;DHT22;45778;51.142;3.732;2023-04-01T16:52:59;9.00;99.90
59923;DHT22;45778;51.142;3.732;2023-04-01T16:55:56;9.00;99.90
59923;DHT22;45778;51.142;3.732;2023-04-01T16:58:36;9.00;99.90
59923;DHT22;45778;51.142;3.732;2023-04-01T17:01:36;8.90;99.90
59923;DHT22;45778;51.142;3.732;2023-04-01T17:04:19;9.00;99.90
59923;DHT22;45778;51.142;3.732;2023-04-01T17:06:56;9.10;99.90
59923;DHT22;45778;51.142;3.732;2023-04-01T17:18:12;8.70;99.90
59923;DHT22;45778;51.142;3.732;2023-04-01T17:20:56;8.70;99.90
59923;DHT22;45778;51.142;3.732;2023-04-01T17:23:34;8.70;99.90
59923;DHT22;45778;51.142;3.732;2023-04-01T17:26:06;8.80;99.90
59923;DHT22;45778;51.142;3.732;2023-04-01T17:34:30;8.70;99.90
59923;DHT22;45778;51.142;3.732;2023-04-01T17:37:31;8.80;99.90
59923;DHT22;45778;51.142;3.732;2023-04-01T17:43:17;8.80;99.90
59923;DHT22;45778;51.142;3.732;2023-04-01T17:46:05;8.80;99.90
59923;DHT22;45778;51.142;3.732;2023-04-01T17:49:02;8.80;99.90
59923;DHT22;45778;51.142;3.732;2023-04-01T18:00:39;8.70;99.90
59923;DHT22;45778;51.142;3.732;2023-04-01T18:06:19;8.60;99.90
59923;DHT22;45778;51.142;3.732;2023-04-01T18:19:58;8.60;99.90
59923;DHT22;45778;51.142;3.732;2023-04-01T18:27:43;8.60;99.90
59923;DHT22;45778;51.142;3.732;2023-04-01T18:30:25;8.60;99.90
59923;DHT22;45778;51.142;3.732;2023-04-01T18:33:09;8.60;99.90
59923;DHT22;45778;51.142;3.732;2023-04-01T18:38:13;8.60;99.90
59923;DHT22;45778;51.142;3.732;2023-04-01T18:41:12;8.60;99.90
59923;DHT22;45778;51.142;3.732;2023-04-01T18:43:45;8.60;99.90
59923;DHT22;45778;51.142;3.732;2023-04-01T18:49:07;8.50;99.90
59923;DHT22;45778;51.142;3.732;2023-04-01T18:52:08;8.50;99.90
59923;DHT22;45778;51.142;3.732;2023-04-01T18:57:53;8.60;99.90
59923;DHT22;45778;51.142;3.732;2023-04-01T19:00:21;8.60;99.90
59923;DHT22;45778;51.142;3.732;2023-04-01T19:03:00;8.80;99.90
59923;DHT22;45778;51.142;3.732;2023-04-01T19:05:38;8.70;99.90
59923;DHT22;45778;51.142;3.732;2023-04-01T19:08:39;8.60;99.90
59923;DHT22;45778;51.142;3.732;2023-04-01T19:11:39;8.50;99.90
59923;DHT22;45778;51.142;3.732;2023-04-01T19:14:16;8.50;99.90
59923;DHT22;45778;51.142;3.732;2023-04-01T19:16:46;8.60;99.90
59923;DHT22;45778;51.142;3.732;2023-04-01T19:21:56;8.60;99.90
59923;DHT22;45778;51.142;3.732;2023-04-01T19:27:18;8.50;99.90
59923;DHT22;45778;51.142;3.732;2023-04-01T19:29:58;8.50;99.90
59923;DHT22;45778;51.142;3.732;2023-04-01T19:35:54;8.60;99.90
59923;DHT22;45778;51.142;3.732;2023-04-01T19:44:03;8.50;99.90
59923;DHT22;45778;51.142;3.732;2023-04-01T19:46:48;8.60;99.90
59923;DHT22;45778;51.142;3.732;2023-04-01T19:55:02;8.50;99.90
59923;DHT22;45778;51.142;3.732;2023-04-01T20:11:11;8.60;99.90
59923;DHT22;45778;51.142;3.732;2023-04-01T20:13:58;8.60;99.90
59923;DHT22;45778;51.142;3.732;2023-04-01T20:16:51;8.50;99.90
59923;DHT22;45778;51.142;3.732;2023-04-01T20:19:43;8.50;99.90
59923;DHT22;45778;51.142;3.732;2023-04-01T20:25:12;8.50;99.90
59923;DHT22;45778;51.142;3.732;2023-04-01T20:27:54;8.50;99.90
59923;DHT22;45778;51.142;3.732;2023-04-01T20:39:30;8.50;99.90
59923;DHT22;45778;51.142;3.732;2023-04-01T20:53:11;8.60;99.90
59923;DHT22;45778;51.142;3.732;2023-04-01T21:01:22;8.60;99.90
59923;DHT22;45778;51.142;3.732;2023-04-01T21:27:02;8.60;99.90
59923;DHT22;45778;51.142;3.732;2023-04-01T21:35:26;8.60;99.90
59923;DHT22;45778;51.142;3.732;2023-04-01T21:54:50;8.60;99.90
59923;DHT22;45778;51.142;3.732;2023-04-01T21:58:21;8.60;99.90
59923;DHT22;45778;51.142;3.732;2023-04-01T22:03:58;8.60;99.90
59923;DHT22;45778;51.142;3.732;2023-04-01T22:07:28;8.60;99.90
59923;DHT22;45778;51.142;3.732;2023-04-01T22:09:33;8.60;99.90
59923;DHT22;45778;51.142;3.732;2023-04-01T22:12:11;8.60;99.90
59923;DHT22;45778;51.142;3.732;2023-04-01T22:18:07;8.60;99.90
59923;DHT22;45778;51.142;3.732;2023-04-01T22:20:44;8.70;99.90
59923;DHT22;45778;51.142;3.732;2023-04-01T22:23:20;8.70;99.90
59923;DHT22;45778;51.142;3.732;2023-04-01T22:26:01;8.80;99.90
59923;DHT22;45778;51.142;3.732;2023-04-01T22:31:23;8.60;99.90
59923;DHT22;45778;51.142;3.732;2023-04-01T22:34:03;8.60;99.90
59923;DHT22;45778;51.142;3.732;2023-04-01T22:45:02;8.70;99.90
59923;DHT22;45778;51.142;3.732;2023-04-01T22:47:43;8.60;99.90
59923;DHT22;45778;51.142;3.732;2023-04-01T22:50:18;8.60;99.90
59923;DHT22;45778;51.142;3.732;2023-04-01T22:52:47;8.50;99.90
59923;DHT22;45778;51.142;3.732;2023-04-01T22:55:27;8.60;99.90
59923;DHT22;45778;51.142;3.732;2023-04-01T23:00:34;8.60;99.90
59923;DHT22;45778;51.142;3.732;2023-04-01T23:05:30;8.60;99.90
59923;DHT22;45778;51.142;3.732;2023-04-01T23:11:04;8.60;99.90
59923;DHT22;45778;51.142;3.732;2023-04-01T23:13:39;8.70;99.90
59923;DHT22;45778;51.142;3.732;2023-04-01T23:16:07;8.70;99.90
59923;DHT22;45778;51.142;3.732;2023-04-01T23:24:27;8.70;99.90
59923;DHT22;45778;51.142;3.732;2023-04-01T23:27:08;8.70;99.90
59923;DHT22;45778;51.142;3.732;2023-04-01T23:29:37;8.70;99.90
59923;DHT22;45778;51.142;3.732;2023-04-01T23:32:16;8.70;99.90
59923;DHT22;45778;51.142;3.732;2023-04-01T23:34:51;8.70;99.90
59923;DHT22;45778;51.142;3.732;2023-04-01T23:37:18;8.70;99.90
59923;DHT22;45778;51.142;3.732;2023-04-01T23:40:01;8.60;99.90
59923;DHT22;45778;51.142;3.732;2023-04-01T23:42:38;8.60;99.90
59923;DHT22;45778;51.142;3.732;2023-04-01T23:45:13;8.60;99.90
59923;DHT22;45778;51.142;3.732;2023-04-01T23:47:42;8.50;99.90
59923;DHT22;45778;51.142;3.732;2023-04-01T23:50:20;8.50;99.90
59923;DHT22;45778;51.142;3.732;2023-04-01T23:53:04;8.50;99.90
59923;DHT22;45778;51.142;3.732;2023-04-01T23:55:34;8.60;99.90
59923;DHT22;45778;51.142;3.732;2023-04-01T23:58:07;8.60;99.90
